createdAt,value
2023-02-22T00:02:11.484Z,34.10
2023-02-22T00:04:39.747Z,32.90
2023-02-22T00:07:07.789Z,33.40
2023-02-22T00:09:34.964Z,34.33
2023-02-22T00:12:02.316Z,34.28
2023-02-22T00:14:29.492Z,32.33
2023-02-22T00:16:59.973Z,33.80
2023-02-22T00:19:30.880Z,33.70
2023-02-22T00:21:58.427Z,33.60
2023-02-22T00:24:25.985Z,32.22
2023-02-22T00:26:58.397Z,33.70
2023-02-22T00:29:26.313Z,33.10
2023-02-22T00:31:54.222Z,34.05
2023-02-22T00:34:23.593Z,36.35
2023-02-22T00:36:50.979Z,36.38
2023-02-22T00:39:18.519Z,37.22
2023-02-22T00:41:45.820Z,35.25
2023-02-22T00:44:13.079Z,34.83
2023-02-22T00:46:40.288Z,35.22
2023-02-22T00:49:07.512Z,36.90
2023-02-22T00:51:34.838Z,36.00
2023-02-22T00:54:02.000Z,36.08
2023-02-22T00:56:29.172Z,34.75
2023-02-22T00:58:56.443Z,38.17
2023-02-22T01:01:24.203Z,34.92
2023-02-22T01:03:52.141Z,37.08
2023-02-22T01:06:20.172Z,36.05
2023-02-22T01:08:48.801Z,37.42
2023-02-22T01:11:18.145Z,37.13
2023-02-22T01:13:45.524Z,37.50
2023-02-22T01:16:12.778Z,37.67
2023-02-22T01:18:40.586Z,38.53
2023-02-22T01:21:08.564Z,38.92
2023-02-22T01:23:35.630Z,38.75
2023-02-22T01:26:05.920Z,39.22
2023-02-22T01:28:34.019Z,42.13
2023-02-22T01:31:03.211Z,41.28
2023-02-22T01:33:31.096Z,41.55
2023-02-22T01:35:58.225Z,39.80
2023-02-22T01:38:26.235Z,40.88
2023-02-22T01:40:55.059Z,40.60
2023-02-22T01:43:31.719Z,42.35
2023-02-22T01:46:23.474Z,42.25
2023-02-22T01:49:06.015Z,40.28
2023-02-22T01:51:40.907Z,43.00
2023-02-22T01:54:26.336Z,40.35
2023-02-22T01:57:32.314Z,42.67
2023-02-22T02:00:17.308Z,39.10
2023-02-22T02:02:52.372Z,41.67
2023-02-22T02:05:25.240Z,41.53
2023-02-22T02:07:53.463Z,42.45
2023-02-22T02:10:21.990Z,43.60
2023-02-22T02:12:51.395Z,41.00
2023-02-22T02:15:33.348Z,40.03
2023-02-22T02:18:08.058Z,41.88
2023-02-22T02:20:41.177Z,40.20
2023-02-22T02:23:45.222Z,39.38
2023-02-22T02:27:06.445Z,41.63
2023-02-22T02:29:50.923Z,39.53
2023-02-22T02:32:54.339Z,42.28
2023-02-22T02:35:50.162Z,40.10
2023-02-22T02:38:41.424Z,38.28
2023-02-22T02:41:27.997Z,38.67
2023-02-22T02:47:01.789Z,39.67
2023-02-22T02:50:01.464Z,42.40
2023-02-22T02:52:31.385Z,41.22
2023-02-22T02:54:58.893Z,41.45
2023-02-22T02:57:26.489Z,42.53
2023-02-22T02:59:53.813Z,36.58
2023-02-22T03:02:55.974Z,41.22
2023-02-22T03:05:54.244Z,43.70
2023-02-22T03:08:58.395Z,38.92
2023-02-22T03:11:34.530Z,39.30
2023-02-22T03:14:22.994Z,44.58
2023-02-22T03:17:01.211Z,42.60
2023-02-22T03:20:01.921Z,42.30
2023-02-22T03:22:55.686Z,37.22
2023-02-22T03:25:34.060Z,41.45
2023-02-22T03:28:07.890Z,44.92
2023-02-22T03:30:49.307Z,43.92
2023-02-22T03:33:28.827Z,47.83
2023-02-22T03:36:02.725Z,42.53
2023-02-22T03:38:33.443Z,47.10
2023-02-22T03:41:03.749Z,43.65
2023-02-22T03:44:02.417Z,47.30
2023-02-22T03:46:30.718Z,43.25
2023-02-22T03:49:48.032Z,46.38
2023-02-22T03:52:15.502Z,43.58
2023-02-22T03:54:43.791Z,43.80
2023-02-22T03:57:27.061Z,46.85
2023-02-22T04:00:08.601Z,43.67
2023-02-22T04:02:42.434Z,44.53
2023-02-22T04:05:15.458Z,45.00
2023-02-22T04:07:42.852Z,44.35
2023-02-22T04:10:13.895Z,42.90
2023-02-22T04:12:41.328Z,48.70
2023-02-22T04:15:11.667Z,46.20
2023-02-22T04:17:38.932Z,45.47
2023-02-22T04:20:07.275Z,48.05
2023-02-22T04:22:53.712Z,50.83
2023-02-22T04:25:23.446Z,50.65
2023-02-22T04:27:51.558Z,54.20
2023-02-22T04:30:23.432Z,60.65
2023-02-22T04:32:51.002Z,60.15
2023-02-22T04:35:21.397Z,60.92
2023-02-22T04:37:48.606Z,58.35
2023-02-22T04:40:17.720Z,67.30
2023-02-22T04:42:45.071Z,65.57
2023-02-22T04:45:13.526Z,64.72
2023-02-22T04:47:40.800Z,67.38
2023-02-22T04:50:09.922Z,67.90
2023-02-22T04:52:37.226Z,70.10
2023-02-22T04:55:05.854Z,70.20
2023-02-22T04:57:33.620Z,67.97
2023-02-22T05:00:00.785Z,65.38
2023-02-22T05:02:28.492Z,73.32
2023-02-22T05:04:55.756Z,72.18
2023-02-22T05:07:22.889Z,68.88
2023-02-22T05:09:50.009Z,72.45
2023-02-22T05:12:17.156Z,70.15
2023-02-22T05:14:44.564Z,75.10
2023-02-22T05:17:11.757Z,75.80
2023-02-22T05:19:39.112Z,75.85
2023-02-22T05:22:06.150Z,78.82
2023-02-22T05:24:33.399Z,79.15
2023-02-22T05:27:00.644Z,88.35
2023-02-22T05:29:27.736Z,82.43
2023-02-22T05:31:55.015Z,81.57
2023-02-22T05:34:22.182Z,90.75
2023-02-22T05:36:49.248Z,85.32
2023-02-22T05:39:16.473Z,89.93
2023-02-22T05:41:43.743Z,90.88
2023-02-22T05:44:10.840Z,88.75
2023-02-22T05:46:38.028Z,93.13
2023-02-22T05:49:05.372Z,95.13
2023-02-22T05:51:33.506Z,93.78
2023-02-22T05:54:00.803Z,93.40
2023-02-22T05:56:30.346Z,91.93
2023-02-22T05:58:58.410Z,98.03
2023-02-22T06:01:27.093Z,95.78
2023-02-22T06:03:54.292Z,97.78
2023-02-22T06:06:22.567Z,97.40
2023-02-22T06:08:50.417Z,98.82
2023-02-22T06:11:19.682Z,90.25
2023-02-22T06:13:52.428Z,96.40
2023-02-22T06:16:21.903Z,94.82
2023-02-22T06:18:49.210Z,90.97
2023-02-22T06:21:17.729Z,95.28
2023-02-22T06:23:45.113Z,93.30
2023-02-22T06:26:12.303Z,91.80
2023-02-22T06:28:39.489Z,99.50
2023-02-22T06:31:06.675Z,95.50
2023-02-22T06:33:33.909Z,94.95
2023-02-22T06:36:01.279Z,98.95
2023-02-22T06:38:28.376Z,97.53
2023-02-22T06:40:56.023Z,96.88
2023-02-22T06:43:24.651Z,98.55
2023-02-22T06:45:53.475Z,94.82
2023-02-22T06:48:20.877Z,98.35
2023-02-22T06:50:47.989Z,94.60
2023-02-22T06:53:15.262Z,97.85
2023-02-22T06:55:42.519Z,96.30
2023-02-22T06:58:09.595Z,101.13
2023-02-22T07:00:36.811Z,96.97
2023-02-22T07:03:05.085Z,102.10
2023-02-22T07:05:32.430Z,98.28
2023-02-22T07:08:06.367Z,101.55
2023-02-22T07:10:35.688Z,99.28
2023-02-22T07:13:04.065Z,95.80
2023-02-22T07:15:33.175Z,98.32
2023-02-22T07:18:01.416Z,100.28
2023-02-22T07:20:30.543Z,102.35
2023-02-22T07:22:58.109Z,101.05
2023-02-22T07:25:26.354Z,99.53
2023-02-22T07:27:53.890Z,104.50
2023-02-22T07:30:31.592Z,98.82
2023-02-22T07:33:02.575Z,102.03
2023-02-22T07:35:33.561Z,99.75
2023-02-22T07:38:00.731Z,101.90
2023-02-22T07:40:28.604Z,100.65
2023-02-22T07:43:12.939Z,100.45
2023-02-22T07:45:40.206Z,101.60
2023-02-22T07:48:08.181Z,98.90
2023-02-22T07:50:36.158Z,105.05
2023-02-22T07:53:07.105Z,100.22
2023-02-22T07:55:34.799Z,103.85
2023-02-22T07:58:08.774Z,106.60
2023-02-22T08:00:40.253Z,102.43
2023-02-22T08:03:13.932Z,104.82
2023-02-22T08:05:46.633Z,103.68
2023-02-22T08:08:19.767Z,104.65
2023-02-22T08:10:48.156Z,103.95
2023-02-22T08:13:16.624Z,103.68
2023-02-22T08:15:53.606Z,106.90
2023-02-22T08:18:22.992Z,103.57
2023-02-22T08:20:52.782Z,103.10
2023-02-22T08:23:22.655Z,96.82
2023-02-22T08:25:49.839Z,97.55
2023-02-22T08:28:21.593Z,105.80
2023-02-22T08:30:49.058Z,104.65
2023-02-22T08:33:19.684Z,100.32
2023-02-22T08:35:49.837Z,102.22
2023-02-22T08:38:27.965Z,105.70
2023-02-22T08:40:55.390Z,108.22
2023-02-22T08:43:23.839Z,107.97
2023-02-22T08:45:52.092Z,99.57
2023-02-22T08:48:20.410Z,105.60
2023-02-22T08:50:47.797Z,103.47
2023-02-22T08:53:16.444Z,103.20
2023-02-22T08:55:44.627Z,105.82
2023-02-22T08:58:12.330Z,104.75
2023-02-22T09:00:40.999Z,103.10
2023-02-22T09:03:13.292Z,105.97
2023-02-22T09:05:42.636Z,105.40
2023-02-22T09:08:09.927Z,111.32
2023-02-22T09:10:37.134Z,110.13
2023-02-22T09:13:05.059Z,107.63
2023-02-22T09:15:36.245Z,107.57
2023-02-22T09:18:05.923Z,112.47
2023-02-22T09:20:33.163Z,111.40
2023-02-22T09:23:02.829Z,114.18
2023-02-22T09:25:30.271Z,101.25
2023-02-22T09:27:58.273Z,106.70
2023-02-22T09:30:34.301Z,111.03
2023-02-22T09:35:36.046Z,109.80
2023-02-22T09:38:06.456Z,105.82
2023-02-22T09:40:44.861Z,107.55
2023-02-22T09:43:25.777Z,106.40
2023-02-22T09:46:28.428Z,111.57
2023-02-22T09:49:27.356Z,114.15
2023-02-22T09:52:04.836Z,116.55
2023-02-22T09:54:40.812Z,114.90
2023-02-22T10:00:01.258Z,113.95
2023-02-22T10:02:37.185Z,117.55
2023-02-22T10:05:27.612Z,112.60
2023-02-22T10:08:01.141Z,116.57
2023-02-22T10:10:39.794Z,110.65
2023-02-22T10:13:16.677Z,122.72
2023-02-22T10:16:40.807Z,117.50
2023-02-22T10:19:25.063Z,115.80
2023-02-22T10:22:31.490Z,122.43
2023-02-22T10:25:14.338Z,113.75
2023-02-22T10:28:03.932Z,113.57
2023-02-22T10:30:36.814Z,110.43
2023-02-22T10:33:20.327Z,117.00
2023-02-22T10:35:48.571Z,117.00
2023-02-22T10:38:24.374Z,113.82
2023-02-22T10:41:10.728Z,119.57
2023-02-22T10:43:39.165Z,118.63
2023-02-22T10:46:08.689Z,118.40
2023-02-22T10:48:40.905Z,118.32
2023-02-22T10:51:10.823Z,128.75
2023-02-22T10:53:38.724Z,126.75
2023-02-22T10:56:25.718Z,119.93
2023-02-22T10:59:07.392Z,120.50
2023-02-22T11:01:42.650Z,124.05
2023-02-22T11:04:18.409Z,122.60
2023-02-22T11:07:09.112Z,118.65
2023-02-22T11:10:09.401Z,111.72
2023-02-22T11:12:44.864Z,104.82
2023-02-22T11:15:18.474Z,104.05
2023-02-22T11:17:49.117Z,103.10
2023-02-22T11:20:34.485Z,106.38
2023-02-22T11:23:04.476Z,98.32
2023-02-22T11:25:42.334Z,101.25
2023-02-22T11:28:30.780Z,85.63
2023-02-22T11:31:21.127Z,94.97
2023-02-22T11:34:00.794Z,88.63
2023-02-22T11:36:37.845Z,93.45
2023-02-22T11:39:30.103Z,87.47
2023-02-22T11:41:57.372Z,91.82
2023-02-22T11:44:27.327Z,90.75
2023-02-22T11:47:01.477Z,80.35
2023-02-22T11:49:38.611Z,80.90
2023-02-22T11:52:36.242Z,82.55
2023-02-22T11:55:42.650Z,78.60
2023-02-22T11:58:36.992Z,73.10
2023-02-22T12:01:25.544Z,76.30
2023-02-22T12:04:15.809Z,73.20
2023-02-22T12:07:01.898Z,76.32
2023-02-22T12:09:44.846Z,72.88
2023-02-22T12:12:49.518Z,73.05
2023-02-22T12:15:53.904Z,70.43
2023-02-22T12:18:40.029Z,70.93
2023-02-22T12:21:16.757Z,70.63
2023-02-22T12:24:14.352Z,72.38
2023-02-22T12:26:49.491Z,72.57
2023-02-22T12:29:39.062Z,73.10
2023-02-22T12:32:29.285Z,70.38
2023-02-22T12:35:14.729Z,68.13
2023-02-22T12:38:05.116Z,64.38
2023-02-22T12:40:47.494Z,68.22
2023-02-22T12:43:23.248Z,62.92
2023-02-22T12:46:11.044Z,64.95
2023-02-22T12:48:54.471Z,58.08
2023-02-22T12:51:45.636Z,64.15
2023-02-22T12:54:28.327Z,62.95
2023-02-22T12:57:24.678Z,61.35
2023-02-22T13:00:10.222Z,61.38
2023-02-22T13:02:58.036Z,56.60
2023-02-22T13:05:25.217Z,55.28
2023-02-22T13:08:06.093Z,55.20
2023-02-22T13:11:00.978Z,52.97
2023-02-22T13:14:16.948Z,53.63
2023-02-22T13:17:13.487Z,52.92
2023-02-22T13:19:48.264Z,51.63
2023-02-22T13:22:35.218Z,54.63
2023-02-22T13:25:17.793Z,52.42
2023-02-22T13:27:59.349Z,54.08
2023-02-22T13:30:40.177Z,52.05
2023-02-22T13:33:34.733Z,52.22
2023-02-22T13:36:37.633Z,50.42
2023-02-22T13:39:28.698Z,50.33
2023-02-22T13:42:30.801Z,51.70
2023-02-22T13:45:32.907Z,50.42
2023-02-22T13:49:07.571Z,49.78
2023-02-22T13:51:55.823Z,51.10
2023-02-22T13:54:29.953Z,55.40
2023-02-22T13:56:58.148Z,50.78
2023-02-22T13:59:36.071Z,54.15
2023-02-22T14:02:07.866Z,52.85
2023-02-22T14:04:40.238Z,51.40
2023-02-22T14:07:22.656Z,50.60
2023-02-22T14:09:56.475Z,53.80
2023-02-22T14:12:29.977Z,49.63
2023-02-22T14:15:29.503Z,51.17
2023-02-22T14:17:57.485Z,48.25
2023-02-22T14:20:36.923Z,48.28
2023-02-22T14:23:34.940Z,49.25
2023-02-22T14:26:27.868Z,50.10
2023-02-22T14:28:57.653Z,48.38
2023-02-22T14:31:41.254Z,46.65
2023-02-22T14:34:21.680Z,47.60
2023-02-22T14:37:05.322Z,46.88
2023-02-22T14:40:06.354Z,48.13
2023-02-22T14:43:10.195Z,46.95
2023-02-22T14:45:49.601Z,48.30
2023-02-22T14:48:27.052Z,48.30
2023-02-22T14:51:19.040Z,49.25
2023-02-22T14:54:20.544Z,44.78
2023-02-22T14:57:14.890Z,48.92
2023-02-22T15:00:19.805Z,49.25
2023-02-22T15:02:52.360Z,43.47
2023-02-22T15:05:20.907Z,48.33
2023-02-22T15:08:03.787Z,43.78
2023-02-22T15:10:44.360Z,46.22
2023-02-22T15:13:23.895Z,43.45
2023-02-22T15:16:03.535Z,45.22
2023-02-22T15:18:41.020Z,44.20
2023-02-22T15:21:16.518Z,48.60
2023-02-22T15:23:55.559Z,47.63
2023-02-22T15:26:38.788Z,40.28
2023-02-22T15:29:14.588Z,41.95
2023-02-22T15:31:48.112Z,41.53
2023-02-22T15:34:15.604Z,40.88
2023-02-22T15:36:46.034Z,37.88
2023-02-22T15:39:33.276Z,43.22
2023-02-22T15:42:07.938Z,43.50
2023-02-22T15:44:41.645Z,40.95
2023-02-22T15:47:22.351Z,42.75
2023-02-22T15:50:15.772Z,43.25
2023-02-22T15:53:00.818Z,41.85
2023-02-22T15:55:29.084Z,43.72
2023-02-22T15:58:01.763Z,45.50
2023-02-22T16:00:38.414Z,40.40
2023-02-22T16:03:33.231Z,41.10
2023-02-22T16:06:00.652Z,43.25
2023-02-22T16:08:54.746Z,43.08
2023-02-22T16:11:30.001Z,42.42
2023-02-22T16:14:04.998Z,42.40
2023-02-22T16:16:36.442Z,41.95
2023-02-22T16:19:22.451Z,41.55
2023-02-22T16:22:02.988Z,43.90
2023-02-22T16:24:31.498Z,44.72
2023-02-22T16:27:19.335Z,45.15
2023-02-22T16:30:24.966Z,45.55
2023-02-22T16:32:56.156Z,41.58
2023-02-22T16:35:28.557Z,40.92
2023-02-22T16:38:05.397Z,43.90
2023-02-22T16:40:40.785Z,42.60
2023-02-22T16:43:13.951Z,43.88
2023-02-22T16:45:42.569Z,43.67
2023-02-22T16:48:18.874Z,45.53
2023-02-22T16:50:47.194Z,44.28
2023-02-22T16:53:20.025Z,45.33
2023-02-22T16:55:48.881Z,49.92
2023-02-22T16:58:19.094Z,48.88
2023-02-22T17:00:46.241Z,51.75
2023-02-22T17:03:18.774Z,48.10
2023-02-22T17:05:46.154Z,47.13
2023-02-22T17:08:16.319Z,50.17
2023-02-22T17:10:43.766Z,46.25
2023-02-22T17:13:22.464Z,48.40
2023-02-22T17:15:51.533Z,48.80
2023-02-22T17:18:22.816Z,46.95
2023-02-22T17:20:55.011Z,50.15
2023-02-22T17:23:23.660Z,48.72
2023-02-22T17:25:59.290Z,49.45
2023-02-22T17:28:27.141Z,52.65
2023-02-22T17:31:01.371Z,51.92
2023-02-22T17:33:36.677Z,58.25
2023-02-22T17:36:05.405Z,55.92
2023-02-22T17:38:34.570Z,54.45
2023-02-22T17:41:02.797Z,52.95
2023-02-22T17:43:30.053Z,53.33
2023-02-22T17:45:57.291Z,52.70
2023-02-22T17:48:24.809Z,51.42
2023-02-22T17:50:53.274Z,52.97
2023-02-22T17:53:23.377Z,50.35
2023-02-22T17:55:50.910Z,52.38
2023-02-22T17:58:19.106Z,49.72
2023-02-22T18:00:49.897Z,51.35
2023-02-22T18:03:21.897Z,54.30
2023-02-22T18:05:54.965Z,51.95
2023-02-22T18:08:24.495Z,48.85
2023-02-22T18:10:56.281Z,48.67
2023-02-22T18:13:26.955Z,49.90
2023-02-22T18:16:00.035Z,52.47
2023-02-22T18:18:27.734Z,49.78
2023-02-22T18:20:59.503Z,52.58
2023-02-22T18:23:30.529Z,53.65
2023-02-22T18:26:10.148Z,52.63
2023-02-22T18:28:38.212Z,53.90
2023-02-22T18:31:17.147Z,54.50
2023-02-22T18:33:48.070Z,54.17
2023-02-22T18:36:16.620Z,51.20
2023-02-22T18:38:44.814Z,50.55
2023-02-22T18:41:14.919Z,50.45
2023-02-22T18:43:42.374Z,52.85
2023-02-22T18:46:22.101Z,54.30
2023-02-22T18:48:54.561Z,53.58
2023-02-22T18:51:22.535Z,54.03
2023-02-22T18:54:00.077Z,53.90
2023-02-22T18:56:30.100Z,55.42
2023-02-22T18:59:00.973Z,53.38
2023-02-22T19:01:30.474Z,53.25
2023-02-22T19:03:57.993Z,55.08
2023-02-22T19:06:25.139Z,52.47
2023-02-22T19:08:52.395Z,51.85
2023-02-22T19:11:24.612Z,51.92
2023-02-22T19:13:56.194Z,49.20
2023-02-22T19:16:25.743Z,51.40
2023-02-22T19:18:57.394Z,53.33
2023-02-22T19:21:28.397Z,52.50
2023-02-22T19:24:01.149Z,51.55
2023-02-22T19:26:29.374Z,53.00
2023-02-22T19:28:58.966Z,53.95
2023-02-22T19:31:31.468Z,50.72
2023-02-22T19:34:11.071Z,51.90
2023-02-22T19:36:41.400Z,51.63
2023-02-22T19:39:08.744Z,48.83
2023-02-22T19:41:36.042Z,48.03
2023-02-22T19:44:03.246Z,48.80
2023-02-22T19:46:31.947Z,50.47
2023-02-22T19:48:59.097Z,50.75
2023-02-22T19:51:28.784Z,49.65
2023-02-22T19:54:05.185Z,46.15
2023-02-22T19:56:35.221Z,50.92
2023-02-22T19:59:13.405Z,47.42
2023-02-22T20:01:44.097Z,52.28
2023-02-22T20:04:21.263Z,50.17
2023-02-22T20:06:57.787Z,51.92
2023-02-22T20:09:30.265Z,48.60
2023-02-22T20:11:57.726Z,53.67
2023-02-22T20:14:28.352Z,52.28
2023-02-22T20:16:57.064Z,48.50
2023-02-22T20:19:26.709Z,52.00
2023-02-22T20:22:00.326Z,47.25
2023-02-22T20:24:27.684Z,52.00
2023-02-22T20:26:57.175Z,49.70
2023-02-22T20:29:31.795Z,53.45
2023-02-22T20:32:01.023Z,51.67
2023-02-22T20:34:33.447Z,50.65
2023-02-22T20:37:01.933Z,46.90
2023-02-22T20:39:29.238Z,47.38
2023-02-22T20:42:00.339Z,48.90
2023-02-22T20:44:28.129Z,47.92
2023-02-22T20:46:55.931Z,47.53
2023-02-22T20:49:23.499Z,48.05
2023-02-22T20:51:51.085Z,51.22
2023-02-22T20:54:18.985Z,48.38
2023-02-22T20:56:47.871Z,51.42
2023-02-22T20:59:18.628Z,45.42
2023-02-22T21:01:50.377Z,49.47
2023-02-22T21:04:17.882Z,49.45
2023-02-22T21:06:46.728Z,46.65
2023-02-22T21:09:17.603Z,46.28
2023-02-22T21:11:45.345Z,45.90
2023-02-22T21:14:18.541Z,45.33
2023-02-22T21:16:49.456Z,47.50
2023-02-22T21:19:26.464Z,46.75
2023-02-22T21:21:56.139Z,43.38
2023-02-22T21:24:25.419Z,48.72
2023-02-22T21:26:52.706Z,44.55
2023-02-22T21:29:20.274Z,46.38
2023-02-22T21:31:47.919Z,45.65
2023-02-22T21:34:17.537Z,44.05
2023-02-22T21:36:45.716Z,43.47
2023-02-22T21:39:19.275Z,44.88
2023-02-22T21:41:49.576Z,44.58
2023-02-22T21:44:18.225Z,44.35
2023-02-22T21:46:48.821Z,47.25
2023-02-22T21:49:16.361Z,43.90
2023-02-22T21:51:44.798Z,45.97
2023-02-22T21:54:13.247Z,41.63
2023-02-22T21:56:42.838Z,44.15
2023-02-22T21:59:18.883Z,43.00
2023-02-22T22:01:50.246Z,43.88
2023-02-22T22:04:21.868Z,42.70
2023-02-22T22:06:52.123Z,42.70
2023-02-22T22:09:21.953Z,42.90
2023-02-22T22:11:53.424Z,43.58
2023-02-22T22:14:23.574Z,48.63
2023-02-22T22:16:55.936Z,51.85
2023-02-22T22:19:23.375Z,48.85
2023-02-22T22:21:53.472Z,54.38
2023-02-22T22:24:22.749Z,48.13
2023-02-22T22:26:54.557Z,56.35
2023-02-22T22:29:24.580Z,52.55
2023-02-22T22:31:52.323Z,51.70
2023-02-22T22:34:20.124Z,53.17
2023-02-22T22:36:47.910Z,49.55
2023-02-22T22:39:15.258Z,51.38
2023-02-22T22:41:46.882Z,48.47
2023-02-22T22:44:16.127Z,48.92
2023-02-22T22:46:49.043Z,49.78
2023-02-22T22:49:17.002Z,48.00
2023-02-22T22:51:47.352Z,47.00
2023-02-22T22:54:14.959Z,49.33
2023-02-22T22:56:42.386Z,49.55
2023-02-22T22:59:13.169Z,48.10
2023-02-22T23:01:46.883Z,51.08
2023-02-22T23:04:16.772Z,52.25
2023-02-22T23:06:55.008Z,53.88
2023-02-22T23:09:29.676Z,55.30
2023-02-22T23:12:08.972Z,57.92
2023-02-22T23:14:44.171Z,61.88
2023-02-22T23:17:30.779Z,60.13
2023-02-22T23:19:58.318Z,58.80
2023-02-22T23:22:25.693Z,62.50
2023-02-22T23:24:54.413Z,60.25
2023-02-22T23:27:23.708Z,60.55
2023-02-22T23:29:52.497Z,67.20
2023-02-22T23:32:19.799Z,62.83
2023-02-22T23:34:49.587Z,63.05
2023-02-22T23:37:19.229Z,62.47
2023-02-22T23:39:50.930Z,59.90
2023-02-22T23:42:18.390Z,62.22
2023-02-22T23:44:48.141Z,65.53
2023-02-22T23:47:16.118Z,63.15
2023-02-22T23:49:45.410Z,60.63
2023-02-22T23:52:13.418Z,68.60
2023-02-22T23:54:43.873Z,65.53
2023-02-22T23:57:11.286Z,66.55
2023-02-22T23:59:41.059Z,69.80
